createdAt,value
2023-01-13T00:00:05.670Z,20.23
2023-01-13T00:03:07.582Z,23.87
2023-01-13T00:06:13.848Z,22.87
2023-01-13T00:09:15.763Z,23.75
2023-01-13T00:12:17.625Z,19.40
2023-01-13T00:15:19.400Z,17.90
2023-01-13T00:18:21.200Z,18.55
2023-01-13T00:21:25.069Z,18.25
2023-01-13T00:24:27.278Z,22.70
2023-01-13T00:27:29.427Z,38.03
2023-01-13T00:30:31.241Z,30.77
2023-01-13T00:33:35.230Z,22.85
2023-01-13T00:36:37.165Z,22.20
2023-01-13T00:39:39.093Z,26.20
2023-01-13T00:42:59.772Z,27.17
2023-01-13T00:46:02.697Z,18.85
2023-01-13T00:49:04.598Z,18.02
2023-01-13T00:52:06.721Z,16.40
2023-01-13T00:55:08.953Z,18.75
2023-01-13T00:58:10.756Z,17.70
2023-01-13T01:01:17.592Z,18.45
2023-01-13T01:04:19.453Z,22.85
2023-01-13T01:07:21.315Z,19.37
2023-01-13T01:10:23.135Z,17.80
2023-01-13T01:13:24.926Z,18.80
2023-01-13T01:16:29.387Z,19.90
2023-01-13T01:19:32.271Z,19.58
2023-01-13T01:22:34.082Z,19.80
2023-01-13T01:25:35.879Z,18.00
2023-01-13T01:28:37.679Z,18.90
2023-01-13T01:31:39.522Z,19.42
2023-01-13T01:34:42.348Z,18.27
2023-01-13T01:37:44.171Z,20.60
2023-01-13T01:40:45.956Z,19.85
2023-01-13T01:44:06.083Z,19.52
2023-01-13T01:47:14.092Z,19.65
2023-01-13T01:50:17.392Z,17.73
2023-01-13T01:53:24.410Z,18.17
2023-01-13T01:56:26.348Z,18.67
2023-01-13T01:59:32.232Z,17.45
2023-01-13T02:02:34.507Z,17.75
2023-01-13T02:05:36.791Z,17.23
2023-01-13T02:08:41.436Z,17.90
2023-01-13T02:12:01.963Z,17.12
2023-01-13T02:15:11.615Z,15.60
2023-01-13T02:18:22.431Z,17.40
2023-01-13T02:22:01.851Z,16.95
2023-01-13T02:25:35.821Z,16.50
2023-01-13T02:29:27.071Z,18.48
2023-01-13T02:33:03.143Z,17.85
2023-01-13T02:36:11.071Z,17.87
2023-01-13T02:39:23.784Z,18.35
2023-01-13T02:42:53.741Z,17.55
2023-01-13T02:46:20.765Z,16.70
2023-01-13T02:49:40.466Z,17.67
2023-01-13T02:52:55.619Z,18.17
2023-01-13T02:55:59.048Z,16.75
2023-01-13T02:59:02.131Z,16.37
2023-01-13T03:02:04.845Z,17.10
2023-01-13T03:05:07.112Z,17.05
2023-01-13T03:08:17.936Z,17.05
2023-01-13T03:11:20.803Z,18.20
2023-01-13T03:14:31.647Z,15.85
2023-01-13T03:17:50.000Z,15.35
2023-01-13T03:21:06.390Z,18.95
2023-01-13T03:24:20.055Z,16.15
2023-01-13T03:27:40.622Z,15.48
2023-01-13T03:30:50.239Z,16.40
2023-01-13T03:33:59.931Z,16.75
2023-01-13T03:37:05.850Z,16.12
2023-01-13T03:40:30.025Z,15.90
2023-01-13T03:44:00.864Z,15.32
2023-01-13T03:47:30.742Z,16.12
2023-01-13T03:50:40.700Z,14.05
2023-01-13T03:53:57.436Z,14.52
2023-01-13T03:57:07.412Z,13.48
2023-01-13T04:00:12.574Z,14.50
2023-01-13T04:03:22.327Z,12.52
2023-01-13T04:06:45.505Z,13.38
2023-01-13T04:09:56.954Z,13.45
2023-01-13T04:13:13.259Z,13.52
2023-01-13T04:16:15.504Z,12.80
2023-01-13T04:19:17.177Z,12.45
2023-01-13T04:22:18.936Z,13.27
2023-01-13T04:25:20.598Z,12.82
2023-01-13T04:28:23.336Z,13.10
2023-01-13T04:31:25.153Z,12.95
2023-01-13T04:34:28.406Z,13.05
2023-01-13T04:37:30.262Z,12.18
2023-01-13T04:40:33.020Z,13.35
2023-01-13T04:43:34.755Z,12.20
2023-01-13T04:46:36.554Z,12.48
2023-01-13T04:49:38.264Z,11.90
2023-01-13T04:52:40.036Z,11.35
2023-01-13T04:55:41.845Z,11.35
2023-01-13T04:58:43.540Z,12.30
2023-01-13T05:01:45.435Z,12.02
2023-01-13T05:04:47.903Z,12.48
2023-01-13T05:07:49.651Z,14.50
2023-01-13T05:10:51.440Z,12.48
2023-01-13T05:14:11.656Z,12.13
2023-01-13T05:17:20.019Z,12.05
2023-01-13T05:20:22.861Z,12.32
2023-01-13T05:24:00.157Z,13.15
2023-01-13T05:27:01.909Z,12.23
2023-01-13T05:30:04.357Z,14.57
2023-01-13T05:33:06.030Z,17.05
2023-01-13T05:36:08.254Z,12.82
2023-01-13T05:39:09.969Z,12.40
2023-01-13T05:42:30.309Z,18.80
2023-01-13T05:45:32.273Z,12.98
2023-01-13T05:48:39.813Z,12.98
2023-01-13T05:54:49.085Z,11.43
2023-01-13T05:57:50.796Z,11.05
2023-01-13T06:00:53.148Z,12.35
2023-01-13T06:03:54.803Z,28.67
2023-01-13T06:06:56.526Z,12.98
2023-01-13T06:09:58.261Z,11.12
2023-01-13T06:13:01.249Z,13.62
2023-01-13T06:16:05.112Z,11.40
2023-01-13T06:19:09.109Z,11.12
2023-01-13T06:22:21.963Z,11.98
2023-01-13T06:26:02.249Z,11.32
2023-01-13T06:29:04.531Z,10.57
2023-01-13T06:32:11.433Z,11.02
2023-01-13T06:35:17.344Z,11.60
2023-01-13T06:38:21.095Z,10.38
2023-01-13T06:41:43.684Z,10.30
2023-01-13T06:44:46.369Z,10.05
2023-01-13T06:47:48.142Z,10.88
2023-01-13T06:50:49.963Z,10.35
2023-01-13T06:53:51.707Z,10.85
2023-01-13T06:56:53.407Z,10.80
2023-01-13T06:59:55.339Z,10.45
2023-01-13T07:03:10.321Z,10.73
2023-01-13T07:06:12.023Z,10.57
2023-01-13T07:09:13.727Z,11.15
2023-01-13T07:12:15.474Z,9.52
2023-01-13T07:15:19.724Z,11.38
2023-01-13T07:18:21.820Z,11.88
2023-01-13T07:21:23.668Z,10.43
2023-01-13T07:24:25.378Z,10.38
2023-01-13T07:27:27.111Z,10.85
2023-01-13T07:30:28.789Z,12.73
2023-01-13T07:33:33.888Z,14.57
2023-01-13T07:36:36.237Z,14.13
2023-01-13T07:39:38.018Z,11.32
2023-01-13T07:42:59.427Z,12.05
2023-01-13T07:46:04.906Z,10.75
2023-01-13T07:49:07.551Z,11.12
2023-01-13T07:52:11.306Z,10.93
2023-01-13T07:55:14.108Z,12.23
2023-01-13T07:58:16.928Z,10.13
2023-01-13T08:01:19.543Z,11.10
2023-01-13T08:04:21.433Z,10.70
2023-01-13T08:07:24.239Z,10.90
2023-01-13T08:10:28.096Z,10.48
2023-01-13T08:13:30.325Z,11.82
2023-01-13T08:16:34.522Z,11.23
2023-01-13T08:19:36.298Z,11.57
2023-01-13T08:22:38.479Z,11.27
2023-01-13T08:25:40.472Z,12.57
2023-01-13T08:28:42.210Z,10.95
2023-01-13T08:31:43.985Z,11.38
2023-01-13T08:34:45.673Z,12.30
2023-01-13T08:37:48.172Z,12.73
2023-01-13T08:40:51.991Z,18.27
2023-01-13T08:43:53.778Z,46.83
2023-01-13T08:46:56.495Z,26.23
2023-01-13T08:49:58.206Z,22.65
2023-01-13T08:53:00.444Z,16.87
2023-01-13T08:56:10.989Z,12.07
2023-01-13T08:59:14.654Z,12.60
2023-01-13T09:02:19.425Z,12.10
2023-01-13T09:05:21.388Z,12.50
2023-01-13T09:08:23.095Z,16.48
2023-01-13T09:11:52.879Z,13.62
2023-01-13T09:14:54.653Z,28.05
2023-01-13T09:17:56.303Z,30.10
2023-01-13T09:20:59.133Z,18.35
2023-01-13T09:24:00.874Z,16.65
2023-01-13T09:27:02.635Z,15.75
2023-01-13T09:30:05.426Z,13.55
2023-01-13T09:33:25.409Z,23.55
2023-01-13T09:36:27.133Z,15.07
2023-01-13T09:39:28.988Z,15.13
2023-01-13T09:43:03.648Z,13.45
2023-01-13T09:46:47.633Z,10.75
2023-01-13T09:49:49.529Z,15.45
2023-01-13T09:52:52.253Z,10.55
2023-01-13T09:55:55.095Z,12.02
2023-01-13T09:58:57.766Z,14.52
2023-01-13T10:02:13.926Z,14.50
2023-01-13T10:05:43.132Z,16.67
2023-01-13T10:08:47.166Z,17.40
2023-01-13T10:12:09.560Z,15.32
2023-01-13T10:15:19.209Z,13.62
2023-01-13T10:18:39.777Z,21.60
2023-01-13T10:22:09.365Z,13.18
2023-01-13T10:25:31.713Z,14.27
2023-01-13T10:28:33.399Z,11.77
2023-01-13T10:31:35.203Z,13.88
2023-01-13T10:35:05.724Z,18.83
2023-01-13T10:38:17.113Z,31.23
2023-01-13T10:41:24.742Z,19.30
2023-01-13T10:44:27.527Z,34.90
2023-01-13T10:47:31.256Z,23.02
2023-01-13T10:50:36.840Z,21.05
2023-01-13T10:53:47.334Z,32.15
2023-01-13T10:56:50.269Z,36.45
2023-01-13T10:59:53.217Z,41.15
2023-01-13T11:03:13.867Z,19.73
2023-01-13T11:06:28.794Z,31.20
2023-01-13T11:09:32.835Z,16.62
2023-01-13T11:12:44.387Z,15.43
2023-01-13T11:16:04.196Z,15.55
2023-01-13T11:19:12.473Z,14.95
2023-01-13T11:22:23.510Z,14.70
2023-01-13T11:25:35.346Z,15.50
2023-01-13T11:29:00.571Z,16.33
2023-01-13T11:32:35.597Z,15.77
2023-01-13T11:36:11.141Z,16.45
2023-01-13T11:39:26.429Z,16.90
2023-01-13T11:43:04.953Z,16.67
2023-01-13T11:46:09.888Z,15.27
2023-01-13T11:49:23.895Z,14.70
2023-01-13T11:52:45.048Z,16.25
2023-01-13T11:56:04.918Z,16.05
2023-01-13T11:59:25.687Z,17.50
2023-01-13T12:02:27.419Z,17.58
2023-01-13T12:05:46.203Z,17.85
2023-01-13T12:08:59.627Z,17.42
2023-01-13T12:12:22.874Z,17.00
2023-01-13T12:15:35.960Z,16.50
2023-01-13T12:19:07.521Z,16.37
2023-01-13T12:22:31.915Z,14.48
2023-01-13T12:25:41.966Z,15.80
2023-01-13T12:28:50.155Z,17.65
2023-01-13T12:31:52.621Z,14.70
2023-01-13T12:35:18.809Z,19.08
2023-01-13T12:38:34.432Z,16.62
2023-01-13T12:42:29.902Z,14.98
2023-01-13T12:45:33.890Z,16.02
2023-01-13T12:48:57.061Z,18.17
2023-01-13T12:52:13.754Z,18.10
2023-01-13T12:55:26.903Z,18.05
2023-01-13T12:58:28.996Z,20.35
2023-01-13T13:01:37.708Z,17.85
2023-01-13T13:04:42.534Z,22.23
2023-01-13T13:07:53.524Z,18.25
2023-01-13T13:11:01.684Z,17.17
2023-01-13T13:14:07.422Z,18.70
2023-01-13T13:17:25.395Z,22.67
2023-01-13T13:24:04.071Z,50.17
2023-01-13T13:30:36.988Z,40.28
2023-01-13T13:33:56.065Z,22.92
2023-01-13T13:37:16.707Z,25.48
2023-01-13T13:40:36.980Z,23.58
2023-01-13T13:44:04.558Z,26.25
2023-01-13T13:47:07.468Z,23.25
2023-01-13T13:50:15.384Z,22.37
2023-01-13T13:53:19.802Z,24.67
2023-01-13T13:56:27.917Z,21.45
2023-01-13T13:59:30.936Z,20.58
2023-01-13T14:02:37.503Z,21.48
2023-01-13T14:05:39.276Z,20.65
2023-01-13T14:08:46.612Z,23.80
2023-01-13T14:15:01.324Z,19.87
2023-01-13T14:18:06.057Z,21.80
2023-01-13T14:21:22.312Z,23.92
2023-01-13T14:24:25.134Z,24.15
2023-01-13T14:27:28.719Z,21.17
2023-01-13T14:30:32.172Z,21.92
2023-01-13T14:33:46.953Z,24.75
2023-01-13T14:36:51.195Z,27.83
2023-01-13T14:39:52.917Z,25.40
2023-01-13T14:43:02.398Z,30.02
2023-01-13T14:46:04.285Z,23.70
2023-01-13T14:49:16.344Z,24.48
2023-01-13T14:52:21.898Z,42.17
2023-01-13T14:55:34.417Z,44.08
2023-01-13T14:58:36.137Z,36.13
2023-01-13T15:01:41.827Z,29.27
2023-01-13T15:04:43.537Z,20.37
2023-01-13T15:07:51.313Z,24.42
2023-01-13T15:11:01.825Z,35.80
2023-01-13T15:14:10.741Z,36.67
2023-01-13T15:17:17.508Z,29.08
2023-01-13T15:20:21.757Z,34.40
2023-01-13T15:23:23.661Z,41.13
2023-01-13T15:26:28.309Z,28.30
2023-01-13T15:29:30.147Z,27.75
2023-01-13T15:32:31.854Z,32.22
2023-01-13T15:35:33.802Z,39.75
2023-01-13T15:38:35.473Z,37.60
2023-01-13T15:41:55.772Z,34.08
2023-01-13T15:45:17.076Z,28.85
2023-01-13T15:48:21.463Z,27.15
2023-01-13T15:51:23.245Z,25.73
2023-01-13T15:54:25.043Z,21.33
2023-01-13T15:57:34.193Z,21.00
2023-01-13T16:00:35.978Z,22.35
2023-01-13T16:03:37.701Z,19.75
2023-01-13T16:06:39.459Z,21.25
2023-01-13T16:09:41.142Z,24.12
2023-01-13T16:12:42.916Z,22.60
2023-01-13T16:15:49.782Z,22.10
2023-01-13T16:18:52.822Z,25.98
2023-01-13T16:21:55.254Z,36.85
2023-01-13T16:24:57.092Z,31.52
2023-01-13T16:27:58.833Z,29.75
2023-01-13T16:31:00.544Z,26.12
2023-01-13T16:34:04.052Z,25.73
2023-01-13T16:37:19.078Z,26.10
2023-01-13T16:40:23.919Z,26.12
2023-01-13T16:43:25.735Z,28.67
2023-01-13T16:46:29.934Z,30.62
2023-01-13T16:49:31.761Z,32.97
2023-01-13T16:52:33.447Z,30.58
2023-01-13T16:55:36.907Z,36.15
2023-01-13T16:58:38.695Z,35.50
2023-01-13T17:01:42.646Z,26.17
2023-01-13T17:04:44.852Z,35.45
2023-01-13T17:07:47.974Z,27.83
2023-01-13T17:10:50.849Z,35.85
2023-01-13T17:13:52.574Z,29.52
2023-01-13T17:16:58.474Z,26.37
2023-01-13T17:20:00.296Z,28.35
2023-01-13T17:23:02.100Z,32.63
2023-01-13T17:26:05.241Z,22.00
2023-01-13T17:29:11.770Z,39.92
2023-01-13T17:32:18.818Z,25.67
2023-01-13T17:35:24.841Z,27.58
2023-01-13T17:38:29.397Z,33.25
2023-01-13T17:41:31.607Z,31.10
2023-01-13T17:44:33.381Z,25.80
2023-01-13T17:47:35.229Z,25.58
2023-01-13T17:50:36.912Z,34.03
2023-01-13T17:53:42.074Z,40.88
2023-01-13T17:56:44.108Z,46.08
2023-01-13T17:59:48.262Z,29.30
2023-01-13T18:02:50.223Z,43.80
2023-01-13T18:05:51.946Z,34.70
2023-01-13T18:08:54.514Z,30.98
2023-01-13T18:11:56.652Z,34.78
2023-01-13T18:14:58.517Z,36.80
2023-01-13T18:18:00.968Z,38.22
2023-01-13T18:21:22.942Z,31.83
2023-01-13T18:24:43.574Z,28.33
2023-01-13T18:27:45.950Z,49.35
2023-01-13T18:30:53.747Z,33.10
2023-01-13T18:33:56.346Z,45.45
2023-01-13T18:37:00.681Z,38.90
2023-01-13T18:40:03.736Z,33.53
2023-01-13T18:43:05.720Z,32.65
2023-01-13T18:46:08.697Z,36.15
2023-01-13T18:49:10.945Z,30.83
2023-01-13T18:52:13.418Z,24.37
2023-01-13T18:55:15.439Z,22.30
2023-01-13T18:58:17.887Z,22.67
2023-01-13T19:01:22.715Z,23.25
2023-01-13T19:04:24.978Z,24.42
2023-01-13T19:07:29.431Z,25.45
2023-01-13T19:10:32.919Z,26.95
2023-01-13T19:13:35.867Z,31.35
2023-01-13T19:16:37.780Z,30.67
2023-01-13T19:19:44.142Z,28.15
2023-01-13T19:22:53.813Z,25.12
2023-01-13T19:25:59.943Z,23.73
2023-01-13T19:29:02.715Z,26.98
2023-01-13T19:32:04.652Z,19.98
2023-01-13T19:35:08.956Z,22.30
2023-01-13T19:38:11.322Z,23.27
2023-01-13T19:41:33.525Z,36.42
2023-01-13T19:44:53.983Z,47.22
2023-01-13T19:47:57.517Z,45.17
2023-01-13T19:51:03.161Z,57.03
2023-01-13T19:54:05.327Z,60.97
2023-01-13T19:57:07.477Z,59.17
2023-01-13T20:00:11.924Z,46.95
2023-01-13T20:03:20.925Z,46.80
2023-01-13T20:06:23.426Z,50.50
2023-01-13T20:09:25.898Z,44.15
2023-01-13T20:12:28.968Z,41.58
2023-01-13T20:15:31.884Z,42.80
2023-01-13T20:18:36.764Z,40.92
2023-01-13T20:21:39.953Z,35.15
2023-01-13T20:24:44.138Z,36.63
2023-01-13T20:27:48.441Z,36.53
2023-01-13T20:30:51.081Z,28.08
2023-01-13T20:33:53.417Z,27.58
2023-01-13T20:36:55.757Z,24.60
2023-01-13T20:40:02.487Z,21.92
2023-01-13T20:43:05.458Z,21.67
2023-01-13T20:46:07.309Z,25.67
2023-01-13T20:49:11.561Z,24.23
2023-01-13T20:52:14.692Z,19.35
2023-01-13T20:55:16.643Z,18.52
2023-01-13T20:58:18.899Z,17.62
2023-01-13T21:01:21.305Z,16.25
2023-01-13T21:04:23.729Z,16.58
2023-01-13T21:07:25.887Z,16.83
2023-01-13T21:10:27.679Z,17.42
2023-01-13T21:13:48.178Z,18.20
2023-01-13T21:16:51.550Z,17.85
2023-01-13T21:19:53.422Z,16.52
2023-01-13T21:22:55.127Z,17.10
2023-01-13T21:25:56.817Z,17.45
2023-01-13T21:29:00.071Z,18.25
2023-01-13T21:32:01.821Z,18.27
2023-01-13T21:35:03.709Z,18.08
2023-01-13T21:38:05.537Z,18.10
2023-01-13T21:41:09.021Z,17.58
2023-01-13T21:44:38.483Z,16.27
2023-01-13T21:47:49.031Z,17.05
2023-01-13T21:50:50.889Z,16.80
2023-01-13T21:53:53.547Z,16.42
2023-01-13T21:56:55.255Z,17.08
2023-01-13T21:59:56.996Z,18.35
2023-01-13T22:03:00.125Z,17.45
2023-01-13T22:06:01.924Z,17.37
2023-01-13T22:09:04.029Z,17.95
2023-01-13T22:12:05.894Z,18.02
2023-01-13T22:15:08.651Z,18.62
2023-01-13T22:18:10.327Z,17.00
2023-01-13T22:21:12.046Z,18.05
2023-01-13T22:24:13.917Z,17.20
2023-01-13T22:27:20.987Z,18.48
2023-01-13T22:30:22.786Z,17.58
2023-01-13T22:33:25.531Z,18.50
2023-01-13T22:36:27.250Z,18.92
2023-01-13T22:39:28.999Z,18.75
2023-01-13T22:42:30.660Z,17.37
2023-01-13T22:45:32.419Z,20.15
2023-01-13T22:48:35.063Z,20.12
2023-01-13T22:51:36.867Z,22.30
2023-01-13T22:54:38.514Z,19.20
2023-01-13T22:57:47.692Z,21.65
2023-01-13T23:00:49.824Z,23.58
2023-01-13T23:03:51.775Z,22.83
2023-01-13T23:06:53.540Z,21.98
2023-01-13T23:09:55.278Z,20.55
2023-01-13T23:12:57.002Z,18.87
2023-01-13T23:16:03.589Z,20.15
2023-01-13T23:19:07.104Z,22.08
2023-01-13T23:22:08.888Z,21.45
2023-01-13T23:25:11.241Z,19.67
2023-01-13T23:28:12.998Z,19.00
2023-01-13T23:31:17.990Z,21.08
2023-01-13T23:34:19.671Z,19.87
2023-01-13T23:37:21.385Z,20.98
2023-01-13T23:40:23.099Z,21.70
2023-01-13T23:43:28.926Z,21.75
2023-01-13T23:46:33.075Z,22.65
2023-01-13T23:49:34.923Z,21.92
2023-01-13T23:52:36.696Z,21.10
2023-01-13T23:55:38.388Z,23.20
2023-01-13T23:58:41.436Z,23.48
